sensor_id;sensor_type;location;lat;lon;timestamp;temperature;humidity
30250;DHT22;17064;47.974;13.826;2023-06-22T00:03:25;18.20;99.90
30250;DHT22;17064;47.974;13.826;2023-06-22T00:08:26;18.10;99.90
30250;DHT22;17064;47.974;13.826;2023-06-22T00:13:27;18.10;99.90
30250;DHT22;17064;47.974;13.826;2023-06-22T00:18:27;18.00;99.90
30250;DHT22;17064;47.974;13.826;2023-06-22T00:23:31;18.00;99.90
30250;DHT22;17064;47.974;13.826;2023-06-22T00:28:34;18.00;99.90
30250;DHT22;17064;47.974;13.826;2023-06-22T00:33:35;17.90;99.90
30250;DHT22;17064;47.974;13.826;2023-06-22T00:38:35;17.90;99.90
30250;DHT22;17064;47.974;13.826;2023-06-22T00:43:40;17.90;99.90
30250;DHT22;17064;47.974;13.826;2023-06-22T00:48:42;17.80;99.90
30250;DHT22;17064;47.974;13.826;2023-06-22T00:53:44;17.80;99.90
30250;DHT22;17064;47.974;13.826;2023-06-22T00:58:46;17.70;99.90
30250;DHT22;17064;47.974;13.826;2023-06-22T01:03:47;17.70;99.90
30250;DHT22;17064;47.974;13.826;2023-06-22T01:08:57;17.70;99.90
30250;DHT22;17064;47.974;13.826;2023-06-22T01:14:11;17.60;99.90
30250;DHT22;17064;47.974;13.826;2023-06-22T01:24:54;17.40;99.90
30250;DHT22;17064;47.974;13.826;2023-06-22T01:29:58;17.40;99.90
30250;DHT22;17064;47.974;13.826;2023-06-22T01:35:04;17.30;99.90
30250;DHT22;17064;47.974;13.826;2023-06-22T01:40:07;17.30;99.90
30250;DHT22;17064;47.974;13.826;2023-06-22T01:45:09;17.20;99.90
30250;DHT22;17064;47.974;13.826;2023-06-22T01:50:12;17.20;99.90
30250;DHT22;17064;47.974;13.826;2023-06-22T01:55:13;17.10;99.90
30250;DHT22;17064;47.974;13.826;2023-06-22T02:00:18;17.10;99.90
30250;DHT22;17064;47.974;13.826;2023-06-22T02:05:22;17.00;99.90
30250;DHT22;17064;47.974;13.826;2023-06-22T02:10:24;16.90;99.90
30250;DHT22;17064;47.974;13.826;2023-06-22T02:15:26;16.90;99.90
30250;DHT22;17064;47.974;13.826;2023-06-22T02:20:27;16.80;99.90
30250;DHT22;17064;47.974;13.826;2023-06-22T02:25:28;16.80;99.90
30250;DHT22;17064;47.974;13.826;2023-06-22T02:30:29;16.80;99.90
30250;DHT22;17064;47.974;13.826;2023-06-22T02:35:29;16.60;99.90
30250;DHT22;17064;47.974;13.826;2023-06-22T02:40:31;16.60;99.90
30250;DHT22;17064;47.974;13.826;2023-06-22T02:45:32;16.60;99.90
30250;DHT22;17064;47.974;13.826;2023-06-22T02:50:33;16.50;99.90
30250;DHT22;17064;47.974;13.826;2023-06-22T02:55:33;16.50;99.90
30250;DHT22;17064;47.974;13.826;2023-06-22T03:00:34;16.50;99.90
30250;DHT22;17064;47.974;13.826;2023-06-22T03:05:35;16.50;99.90
30250;DHT22;17064;47.974;13.826;2023-06-22T03:10:36;16.50;99.90
30250;DHT22;17064;47.974;13.826;2023-06-22T03:15:36;16.60;99.90
30250;DHT22;17064;47.974;13.826;2023-06-22T03:20:37;16.60;99.90
30250;DHT22;17064;47.974;13.826;2023-06-22T03:25:38;16.70;99.90
30250;DHT22;17064;47.974;13.826;2023-06-22T03:30:38;16.70;99.90
30250;DHT22;17064;47.974;13.826;2023-06-22T03:35:39;16.80;99.90
30250;DHT22;17064;47.974;13.826;2023-06-22T03:40:40;16.70;99.90
30250;DHT22;17064;47.974;13.826;2023-06-22T03:45:40;16.80;99.90
30250;DHT22;17064;47.974;13.826;2023-06-22T03:50:41;16.80;99.90
30250;DHT22;17064;47.974;13.826;2023-06-22T03:55:51;16.90;99.90
30250;DHT22;17064;47.974;13.826;2023-06-22T04:00:53;16.90;99.90
30250;DHT22;17064;47.974;13.826;2023-06-22T04:05:53;17.00;99.90
30250;DHT22;17064;47.974;13.826;2023-06-22T04:10:54;17.00;99.90
30250;DHT22;17064;47.974;13.826;2023-06-22T04:15:55;17.10;99.90
30250;DHT22;17064;47.974;13.826;2023-06-22T04:20:55;17.20;99.90
30250;DHT22;17064;47.974;13.826;2023-06-22T04:25:56;17.30;99.90
30250;DHT22;17064;47.974;13.826;2023-06-22T04:30:58;17.50;99.90
30250;DHT22;17064;47.974;13.826;2023-06-22T04:36:02;17.60;99.90
30250;DHT22;17064;47.974;13.826;2023-06-22T04:41:04;17.70;99.90
30250;DHT22;17064;47.974;13.826;2023-06-22T04:46:05;17.90;99.90
30250;DHT22;17064;47.974;13.826;2023-06-22T04:51:06;18.10;99.90
30250;DHT22;17064;47.974;13.826;2023-06-22T04:56:08;18.20;99.90
30250;DHT22;17064;47.974;13.826;2023-06-22T05:01:09;18.40;99.90
30250;DHT22;17064;47.974;13.826;2023-06-22T05:06:11;18.60;99.90
30250;DHT22;17064;47.974;13.826;2023-06-22T05:11:11;18.80;99.90
30250;DHT22;17064;47.974;13.826;2023-06-22T05:16:12;19.00;99.90
30250;DHT22;17064;47.974;13.826;2023-06-22T05:21:13;19.20;99.90
30250;DHT22;17064;47.974;13.826;2023-06-22T05:26:14;19.40;99.90
30250;DHT22;17064;47.974;13.826;2023-06-22T05:31:15;19.70;99.90
30250;DHT22;17064;47.974;13.826;2023-06-22T05:36:16;19.90;99.90
30250;DHT22;17064;47.974;13.826;2023-06-22T05:41:16;20.10;99.90
30250;DHT22;17064;47.974;13.826;2023-06-22T05:46:18;20.30;99.90
30250;DHT22;17064;47.974;13.826;2023-06-22T05:51:19;20.60;99.90
30250;DHT22;17064;47.974;13.826;2023-06-22T05:56:20;20.80;99.90
30250;DHT22;17064;47.974;13.826;2023-06-22T06:01:20;21.10;99.90
30250;DHT22;17064;47.974;13.826;2023-06-22T06:06:21;21.20;99.90
30250;DHT22;17064;47.974;13.826;2023-06-22T06:11:23;21.40;99.90
30250;DHT22;17064;47.974;13.826;2023-06-22T06:16:23;21.70;99.90
30250;DHT22;17064;47.974;13.826;2023-06-22T06:21:24;22.00;99.90
30250;DHT22;17064;47.974;13.826;2023-06-22T06:26:25;22.20;99.90
30250;DHT22;17064;47.974;13.826;2023-06-22T06:31:30;22.50;99.90
30250;DHT22;17064;47.974;13.826;2023-06-22T06:36:30;22.80;99.90
30250;DHT22;17064;47.974;13.826;2023-06-22T06:41:31;23.00;99.90
30250;DHT22;17064;47.974;13.826;2023-06-22T06:46:32;23.40;99.90
30250;DHT22;17064;47.974;13.826;2023-06-22T06:51:33;23.50;99.90
30250;DHT22;17064;47.974;13.826;2023-06-22T06:56:34;23.80;99.90
30250;DHT22;17064;47.974;13.826;2023-06-22T07:01:34;24.10;99.90
30250;DHT22;17064;47.974;13.826;2023-06-22T07:06:36;24.20;99.90
30250;DHT22;17064;47.974;13.826;2023-06-22T07:11:38;24.10;99.90
30250;DHT22;17064;47.974;13.826;2023-06-22T07:16:38;23.90;99.90
30250;DHT22;17064;47.974;13.826;2023-06-22T07:21:39;23.90;99.90
30250;DHT22;17064;47.974;13.826;2023-06-22T07:26:40;24.00;99.90
30250;DHT22;17064;47.974;13.826;2023-06-22T07:31:47;24.40;99.90
30250;DHT22;17064;47.974;13.826;2023-06-22T07:36:47;24.70;99.90
30250;DHT22;17064;47.974;13.826;2023-06-22T07:41:48;24.90;99.90
30250;DHT22;17064;47.974;13.826;2023-06-22T07:46:49;24.90;99.90
30250;DHT22;17064;47.974;13.826;2023-06-22T07:51:49;24.90;99.90
30250;DHT22;17064;47.974;13.826;2023-06-22T07:56:50;24.90;99.90
30250;DHT22;17064;47.974;13.826;2023-06-22T08:01:51;25.10;99.90
30250;DHT22;17064;47.974;13.826;2023-06-22T08:06:52;25.50;99.90
30250;DHT22;17064;47.974;13.826;2023-06-22T08:11:53;25.80;99.90
30250;DHT22;17064;47.974;13.826;2023-06-22T08:16:54;26.00;99.90
30250;DHT22;17064;47.974;13.826;2023-06-22T08:21:55;26.40;99.90
30250;DHT22;17064;47.974;13.826;2023-06-22T08:26:55;27.00;99.90
30250;DHT22;17064;47.974;13.826;2023-06-22T08:31:56;27.40;99.90
30250;DHT22;17064;47.974;13.826;2023-06-22T08:36:57;27.80;99.60
30250;DHT22;17064;47.974;13.826;2023-06-22T08:41:58;28.10;98.10
30250;DHT22;17064;47.974;13.826;2023-06-22T08:46:58;28.30;96.70
30250;DHT22;17064;47.974;13.826;2023-06-22T08:51:59;28.70;95.00
30250;DHT22;17064;47.974;13.826;2023-06-22T08:57:01;28.80;91.90
30250;DHT22;17064;47.974;13.826;2023-06-22T09:02:02;28.90;91.00
30250;DHT22;17064;47.974;13.826;2023-06-22T09:07:03;29.00;91.10
30250;DHT22;17064;47.974;13.826;2023-06-22T09:12:04;29.30;90.90
30250;DHT22;17064;47.974;13.826;2023-06-22T09:17:05;29.40;87.70
30250;DHT22;17064;47.974;13.826;2023-06-22T09:22:06;29.60;87.40
30250;DHT22;17064;47.974;13.826;2023-06-22T09:27:07;29.70;86.50
30250;DHT22;17064;47.974;13.826;2023-06-22T09:32:07;30.00;84.20
30250;DHT22;17064;47.974;13.826;2023-06-22T09:37:08;30.30;78.50
30250;DHT22;17064;47.974;13.826;2023-06-22T09:42:09;30.50;80.40
30250;DHT22;17064;47.974;13.826;2023-06-22T09:47:10;30.70;75.90
30250;DHT22;17064;47.974;13.826;2023-06-22T09:52:10;31.00;77.80
30250;DHT22;17064;47.974;13.826;2023-06-22T09:57:11;30.90;72.10
30250;DHT22;17064;47.974;13.826;2023-06-22T10:02:12;30.80;76.30
30250;DHT22;17064;47.974;13.826;2023-06-22T10:07:13;31.00;76.40
30250;DHT22;17064;47.974;13.826;2023-06-22T10:12:14;31.10;73.50
30250;DHT22;17064;47.974;13.826;2023-06-22T10:17:15;31.40;74.50
30250;DHT22;17064;47.974;13.826;2023-06-22T10:22:15;31.50;71.60
30250;DHT22;17064;47.974;13.826;2023-06-22T10:27:16;31.50;68.50
30250;DHT22;17064;47.974;13.826;2023-06-22T10:32:17;31.50;71.50
30250;DHT22;17064;47.974;13.826;2023-06-22T10:37:17;31.70;70.10
30250;DHT22;17064;47.974;13.826;2023-06-22T10:42:18;31.80;69.70
30250;DHT22;17064;47.974;13.826;2023-06-22T10:47:19;31.90;65.20
30250;DHT22;17064;47.974;13.826;2023-06-22T10:52:19;31.80;66.70
30250;DHT22;17064;47.974;13.826;2023-06-22T10:57:21;31.90;66.50
30250;DHT22;17064;47.974;13.826;2023-06-22T11:02:23;32.20;63.20
30250;DHT22;17064;47.974;13.826;2023-06-22T11:07:24;32.10;63.30
30250;DHT22;17064;47.974;13.826;2023-06-22T11:12:27;32.10;66.00
30250;DHT22;17064;47.974;13.826;2023-06-22T11:17:27;32.20;60.30
30250;DHT22;17064;47.974;13.826;2023-06-22T11:22:28;32.30;62.80
30250;DHT22;17064;47.974;13.826;2023-06-22T11:27:30;32.40;62.10
30250;DHT22;17064;47.974;13.826;2023-06-22T11:32:31;32.30;61.10
30250;DHT22;17064;47.974;13.826;2023-06-22T11:37:31;32.40;66.10
30250;DHT22;17064;47.974;13.826;2023-06-22T11:42:32;32.70;66.30
30250;DHT22;17064;47.974;13.826;2023-06-22T11:47:33;32.80;63.50
30250;DHT22;17064;47.974;13.826;2023-06-22T11:52:34;32.70;61.70
30250;DHT22;17064;47.974;13.826;2023-06-22T11:57:37;32.70;64.20
30250;DHT22;17064;47.974;13.826;2023-06-22T12:02:38;32.90;62.50
30250;DHT22;17064;47.974;13.826;2023-06-22T12:07:38;33.00;64.10
30250;DHT22;17064;47.974;13.826;2023-06-22T12:12:39;33.20;64.60
30250;DHT22;17064;47.974;13.826;2023-06-22T12:17:40;33.30;61.30
30250;DHT22;17064;47.974;13.826;2023-06-22T12:22:41;33.60;60.20
30250;DHT22;17064;47.974;13.826;2023-06-22T12:27:42;33.60;61.90
30250;DHT22;17064;47.974;13.826;2023-06-22T12:32:43;33.60;62.60
30250;DHT22;17064;47.974;13.826;2023-06-22T12:37:43;33.70;59.30
30250;DHT22;17064;47.974;13.826;2023-06-22T12:42:45;33.40;58.90
30250;DHT22;17064;47.974;13.826;2023-06-22T12:47:45;33.00;61.50
30250;DHT22;17064;47.974;13.826;2023-06-22T12:52:46;32.60;63.40
30250;DHT22;17064;47.974;13.826;2023-06-22T12:57:47;32.60;64.20
30250;DHT22;17064;47.974;13.826;2023-06-22T13:02:47;32.80;63.90
30250;DHT22;17064;47.974;13.826;2023-06-22T13:07:48;33.00;66.00
30250;DHT22;17064;47.974;13.826;2023-06-22T13:12:49;33.10;64.80
30250;DHT22;17064;47.974;13.826;2023-06-22T13:17:50;33.20;62.20
30250;DHT22;17064;47.974;13.826;2023-06-22T13:22:50;33.30;63.30
30250;DHT22;17064;47.974;13.826;2023-06-22T13:27:51;32.90;61.90
30250;DHT22;17064;47.974;13.826;2023-06-22T13:32:52;32.80;66.00
30250;DHT22;17064;47.974;13.826;2023-06-22T13:37:52;32.70;66.20
30250;DHT22;17064;47.974;13.826;2023-06-22T13:42:53;32.70;65.20
30250;DHT22;17064;47.974;13.826;2023-06-22T13:47:54;32.50;67.20
30250;DHT22;17064;47.974;13.826;2023-06-22T13:52:54;32.50;66.90
30250;DHT22;17064;47.974;13.826;2023-06-22T13:57:55;32.20;67.10
30250;DHT22;17064;47.974;13.826;2023-06-22T14:02:55;32.10;68.00
30250;DHT22;17064;47.974;13.826;2023-06-22T14:07:56;32.00;69.50
30250;DHT22;17064;47.974;13.826;2023-06-22T14:12:57;32.10;72.80
30250;DHT22;17064;47.974;13.826;2023-06-22T14:18:00;32.10;72.10
30250;DHT22;17064;47.974;13.826;2023-06-22T14:23:00;32.00;71.90
30250;DHT22;17064;47.974;13.826;2023-06-22T14:28:01;31.90;72.00
30250;DHT22;17064;47.974;13.826;2023-06-22T14:33:02;31.80;73.60
30250;DHT22;17064;47.974;13.826;2023-06-22T14:38:02;31.70;75.20
30250;DHT22;17064;47.974;13.826;2023-06-22T14:43:03;31.80;73.30
30250;DHT22;17064;47.974;13.826;2023-06-22T14:48:04;31.60;74.70
30250;DHT22;17064;47.974;13.826;2023-06-22T14:53:04;31.60;76.60
30250;DHT22;17064;47.974;13.826;2023-06-22T14:58:05;31.60;75.60
30250;DHT22;17064;47.974;13.826;2023-06-22T15:03:06;31.60;76.70
30250;DHT22;17064;47.974;13.826;2023-06-22T15:08:08;31.50;76.30
30250;DHT22;17064;47.974;13.826;2023-06-22T15:13:08;31.50;75.20
30250;DHT22;17064;47.974;13.826;2023-06-22T15:18:09;31.50;76.00
30250;DHT22;17064;47.974;13.826;2023-06-22T15:23:11;31.40;76.10
30250;DHT22;17064;47.974;13.826;2023-06-22T15:28:12;31.40;77.20
30250;DHT22;17064;47.974;13.826;2023-06-22T15:33:13;31.30;78.50
30250;DHT22;17064;47.974;13.826;2023-06-22T15:38:14;31.30;79.80
30250;DHT22;17064;47.974;13.826;2023-06-22T15:43:14;31.30;76.90
30250;DHT22;17064;47.974;13.826;2023-06-22T15:48:15;31.30;78.70
30250;DHT22;17064;47.974;13.826;2023-06-22T15:53:16;31.30;78.50
30250;DHT22;17064;47.974;13.826;2023-06-22T15:58:17;31.30;78.60
30250;DHT22;17064;47.974;13.826;2023-06-22T16:03:17;31.20;80.10
30250;DHT22;17064;47.974;13.826;2023-06-22T16:08:18;31.10;81.30
30250;DHT22;17064;47.974;13.826;2023-06-22T16:13:19;31.10;81.90
30250;DHT22;17064;47.974;13.826;2023-06-22T16:18:19;31.00;81.20
30250;DHT22;17064;47.974;13.826;2023-06-22T16:23:20;30.90;80.70
30250;DHT22;17064;47.974;13.826;2023-06-22T16:28:21;30.70;81.20
30250;DHT22;17064;47.974;13.826;2023-06-22T16:33:21;30.50;81.90
30250;DHT22;17064;47.974;13.826;2023-06-22T16:38:22;30.40;83.20
30250;DHT22;17064;47.974;13.826;2023-06-22T16:43:23;30.20;83.60
30250;DHT22;17064;47.974;13.826;2023-06-22T16:48:23;30.10;84.10
30250;DHT22;17064;47.974;13.826;2023-06-22T16:53:25;30.00;84.10
30250;DHT22;17064;47.974;13.826;2023-06-22T16:58:25;29.80;84.40
30250;DHT22;17064;47.974;13.826;2023-06-22T17:03:33;29.70;86.20
30250;DHT22;17064;47.974;13.826;2023-06-22T17:08:34;29.60;85.50
30250;DHT22;17064;47.974;13.826;2023-06-22T17:13:36;29.50;86.70
30250;DHT22;17064;47.974;13.826;2023-06-22T17:18:38;29.50;88.00
30250;DHT22;17064;47.974;13.826;2023-06-22T17:23:39;29.50;88.90
30250;DHT22;17064;47.974;13.826;2023-06-22T17:28:50;29.50;88.80
30250;DHT22;17064;47.974;13.826;2023-06-22T17:33:51;29.60;89.30
30250;DHT22;17064;47.974;13.826;2023-06-22T17:38:52;29.50;88.80
30250;DHT22;17064;47.974;13.826;2023-06-22T17:43:58;29.50;89.70
30250;DHT22;17064;47.974;13.826;2023-06-22T17:49:01;29.40;90.30
30250;DHT22;17064;47.974;13.826;2023-06-22T17:54:02;29.30;90.60
30250;DHT22;17064;47.974;13.826;2023-06-22T17:59:03;29.10;90.80
30250;DHT22;17064;47.974;13.826;2023-06-22T18:04:11;28.90;91.10
30250;DHT22;17064;47.974;13.826;2023-06-22T18:09:16;28.70;91.90
30250;DHT22;17064;47.974;13.826;2023-06-22T18:14:19;28.50;92.40
30250;DHT22;17064;47.974;13.826;2023-06-22T18:19:20;28.30;93.00
30250;DHT22;17064;47.974;13.826;2023-06-22T18:24:21;28.10;93.70
30250;DHT22;17064;47.974;13.826;2023-06-22T18:29:23;27.90;94.00
30250;DHT22;17064;47.974;13.826;2023-06-22T18:34:25;27.60;93.90
30250;DHT22;17064;47.974;13.826;2023-06-22T18:39:31;27.50;93.30
30250;DHT22;17064;47.974;13.826;2023-06-22T18:44:33;27.40;93.50
30250;DHT22;17064;47.974;13.826;2023-06-22T18:54:41;27.40;88.20
30250;DHT22;17064;47.974;13.826;2023-06-22T18:59:46;27.40;77.30
30250;DHT22;17064;47.974;13.826;2023-06-22T19:04:47;27.40;73.60
30250;DHT22;17064;47.974;13.826;2023-06-22T19:15:31;27.60;56.10
30250;DHT22;17064;47.974;13.826;2023-06-22T19:20:34;27.50;55.00
30250;DHT22;17064;47.974;13.826;2023-06-22T19:25:35;27.30;54.80
30250;DHT22;17064;47.974;13.826;2023-06-22T19:30:37;27.10;54.90
30250;DHT22;17064;47.974;13.826;2023-06-22T19:35:37;26.90;54.40
30250;DHT22;17064;47.974;13.826;2023-06-22T19:40:41;26.90;52.80
30250;DHT22;17064;47.974;13.826;2023-06-22T19:45:43;26.90;52.40
30250;DHT22;17064;47.974;13.826;2023-06-22T19:50:44;27.00;52.10
30250;DHT22;17064;47.974;13.826;2023-06-22T19:55:47;26.80;53.30
30250;DHT22;17064;47.974;13.826;2023-06-22T20:00:48;26.70;53.60
30250;DHT22;17064;47.974;13.826;2023-06-22T20:05:53;26.50;52.80
30250;DHT22;17064;47.974;13.826;2023-06-22T20:10:55;26.40;53.50
30250;DHT22;17064;47.974;13.826;2023-06-22T20:16:08;26.30;53.80
30250;DHT22;17064;47.974;13.826;2023-06-22T20:21:13;26.10;55.80
30250;DHT22;17064;47.974;13.826;2023-06-22T20:26:14;25.80;56.10
30250;DHT22;17064;47.974;13.826;2023-06-22T20:31:17;25.60;58.80
30250;DHT22;17064;47.974;13.826;2023-06-22T20:36:18;25.30;58.50
30250;DHT22;17064;47.974;13.826;2023-06-22T20:41:19;24.90;59.10
30250;DHT22;17064;47.974;13.826;2023-06-22T20:46:20;24.90;66.90
30250;DHT22;17064;47.974;13.826;2023-06-22T20:51:21;24.90;68.10
30250;DHT22;17064;47.974;13.826;2023-06-22T20:56:21;25.00;66.80
30250;DHT22;17064;47.974;13.826;2023-06-22T21:01:24;25.00;82.70
30250;DHT22;17064;47.974;13.826;2023-06-22T21:06:24;24.90;92.60
30250;DHT22;17064;47.974;13.826;2023-06-22T21:11:25;24.70;96.10
30250;DHT22;17064;47.974;13.826;2023-06-22T21:16:26;24.40;97.60
30250;DHT22;17064;47.974;13.826;2023-06-22T21:21:26;24.30;96.90
30250;DHT22;17064;47.974;13.826;2023-06-22T21:26:27;24.30;96.50
30250;DHT22;17064;47.974;13.826;2023-06-22T21:31:28;24.20;96.50
30250;DHT22;17064;47.974;13.826;2023-06-22T21:36:29;24.10;96.20
30250;DHT22;17064;47.974;13.826;2023-06-22T21:41:29;24.00;95.60
30250;DHT22;17064;47.974;13.826;2023-06-22T21:46:30;23.90;95.00
30250;DHT22;17064;47.974;13.826;2023-06-22T21:51:31;23.80;94.80
30250;DHT22;17064;47.974;13.826;2023-06-22T21:56:32;23.70;95.00
30250;DHT22;17064;47.974;13.826;2023-06-22T22:01:33;23.70;96.70
30250;DHT22;17064;47.974;13.826;2023-06-22T22:06:34;23.90;98.30
30250;DHT22;17064;47.974;13.826;2023-06-22T22:11:35;24.00;98.90
30250;DHT22;17064;47.974;13.826;2023-06-22T22:16:35;24.20;98.40
30250;DHT22;17064;47.974;13.826;2023-06-22T22:21:36;24.40;97.00
30250;DHT22;17064;47.974;13.826;2023-06-22T22:26:37;24.60;95.10
30250;DHT22;17064;47.974;13.826;2023-06-22T22:31:38;24.70;94.40
30250;DHT22;17064;47.974;13.826;2023-06-22T22:36:38;24.70;94.00
30250;DHT22;17064;47.974;13.826;2023-06-22T22:41:42;24.60;94.10
30250;DHT22;17064;47.974;13.826;2023-06-22T22:46:43;24.50;94.10
30250;DHT22;17064;47.974;13.826;2023-06-22T22:51:43;24.30;94.50
30250;DHT22;17064;47.974;13.826;2023-06-22T22:56:47;24.20;94.70
30250;DHT22;17064;47.974;13.826;2023-06-22T23:01:49;24.10;94.80
30250;DHT22;17064;47.974;13.826;2023-06-22T23:06:50;24.00;95.00
30250;DHT22;17064;47.974;13.826;2023-06-22T23:11:50;23.90;95.50
30250;DHT22;17064;47.974;13.826;2023-06-22T23:16:53;23.80;95.50
30250;DHT22;17064;47.974;13.826;2023-06-22T23:21:57;23.70;95.40
30250;DHT22;17064;47.974;13.826;2023-06-22T23:26:57;23.60;94.70
30250;DHT22;17064;47.974;13.826;2023-06-22T23:31:59;23.50;94.10
30250;DHT22;17064;47.974;13.826;2023-06-22T23:36:59;23.40;94.30
30250;DHT22;17064;47.974;13.826;2023-06-22T23:42:00;23.20;94.70
30250;DHT22;17064;47.974;13.826;2023-06-22T23:47:01;23.20;94.20
30250;DHT22;17064;47.974;13.826;2023-06-22T23:52:02;23.00;93.90
30250;DHT22;17064;47.974;13.826;2023-06-22T23:57:05;22.90;94.10
